createdAt,value
2019-02-08T00:00:41.345Z,98
2019-02-08T00:02:11.402Z,98
2019-02-08T00:02:43.137Z,98
2019-02-08T00:03:42.014Z,98
2019-02-08T00:04:41.368Z,98
2019-02-08T00:05:42.501Z,98
2019-02-08T00:06:42.269Z,98
2019-02-08T00:07:42.149Z,98
2019-02-08T00:08:42.420Z,98
2019-02-08T00:09:43.898Z,98
2019-02-08T00:10:41.987Z,98
2019-02-08T00:11:41.450Z,98
2019-02-08T00:12:45.523Z,98
2019-02-08T00:13:41.495Z,98
2019-02-08T00:14:42.296Z,98
2019-02-08T00:15:41.462Z,98
2019-02-08T00:16:42.931Z,98
2019-02-08T00:17:42.311Z,98
2019-02-08T00:18:42.169Z,98
2019-02-08T00:19:42.848Z,98
2019-02-08T00:20:42.417Z,98
2019-02-08T00:21:42.972Z,98
2019-02-08T00:32:28.699Z,98
2019-02-08T00:32:37.752Z,98
2019-02-08T00:33:37.818Z,98
2019-02-08T00:34:37.771Z,98
2019-02-08T00:35:37.784Z,98
2019-02-08T00:36:37.815Z,98
2019-02-08T00:37:41.498Z,98
2019-02-08T00:38:37.895Z,98
2019-02-08T00:39:37.855Z,98
2019-02-08T00:40:38.063Z,98
2019-02-08T00:41:42.683Z,98
2019-02-08T00:42:37.828Z,98
2019-02-08T00:43:37.890Z,98
2019-02-08T00:44:37.726Z,98
2019-02-08T00:45:40.531Z,98
2019-02-08T00:46:37.805Z,98
2019-02-08T00:47:38.125Z,98
2019-02-08T00:48:37.607Z,98
2019-02-08T00:49:38.258Z,98
2019-02-08T00:50:37.671Z,98
2019-02-08T00:51:38.124Z,98
2019-02-08T00:52:38.498Z,98
2019-02-08T00:53:39.372Z,98
2019-02-08T00:54:37.537Z,98
2019-02-08T00:55:38.298Z,98
2019-02-08T00:56:38.722Z,98
2019-02-08T00:57:38.640Z,98
2019-02-08T00:58:37.820Z,98
2019-02-08T00:59:37.816Z,98
2019-02-08T01:00:37.855Z,98
2019-02-08T01:01:38.212Z,98
2019-02-08T01:02:38.078Z,98
2019-02-08T01:03:37.758Z,98
2019-02-08T01:04:37.764Z,98
2019-02-08T01:05:38.275Z,98
2019-02-08T01:06:38.420Z,98
2019-02-08T01:07:38.353Z,98
2019-02-08T01:08:38.436Z,98
2019-02-08T01:09:37.623Z,98
2019-02-08T01:10:37.801Z,98
2019-02-08T01:11:37.828Z,98
2019-02-08T01:12:38.590Z,98
2019-02-08T01:13:38.673Z,98
2019-02-08T01:14:38.072Z,98
2019-02-08T01:15:38.556Z,98
2019-02-08T01:16:38.859Z,98
2019-02-08T01:17:38.330Z,98
2019-02-08T01:18:39.325Z,98
2019-02-08T01:19:39.482Z,98
2019-02-08T01:20:38.168Z,98
2019-02-08T01:21:38.349Z,98
2019-02-08T01:22:38.693Z,98
2019-02-08T01:23:40.851Z,98
2019-02-08T01:24:38.818Z,98
2019-02-08T01:25:38.045Z,98
2019-02-08T01:31:31.839Z,98
2019-02-08T01:31:40.007Z,98
2019-02-08T01:32:40.070Z,98
2019-02-08T01:33:40.588Z,98
2019-02-08T01:34:40.197Z,98
2019-02-08T01:35:40.118Z,98
2019-02-08T01:36:40.004Z,98
2019-02-08T01:37:39.671Z,98
2019-02-08T01:38:42.033Z,98
2019-02-08T01:39:39.715Z,98
2019-02-08T01:40:39.581Z,98
2019-02-08T01:41:39.558Z,98
2019-02-08T01:42:39.571Z,98
2019-02-08T01:43:39.688Z,98
2019-02-08T01:44:39.793Z,98
2019-02-08T01:45:39.890Z,98
2019-02-08T01:46:40.478Z,98
2019-02-08T01:47:39.834Z,98
2019-02-08T01:48:40.726Z,98
2019-02-08T01:49:40.882Z,97
2019-02-08T01:50:41.885Z,97
2019-02-08T01:51:39.762Z,97
2019-02-08T01:52:39.948Z,97
2019-02-08T01:53:39.778Z,97
2019-02-08T01:54:39.557Z,97
2019-02-08T01:55:40.486Z,97
2019-02-08T01:56:39.825Z,97
2019-02-08T01:57:40.907Z,97
2019-02-08T01:59:07.841Z,97
2019-02-08T01:59:39.999Z,97
2019-02-08T02:00:39.717Z,97
2019-02-08T02:01:39.807Z,97
2019-02-08T02:02:40.272Z,97
2019-02-08T02:03:39.852Z,97
2019-02-08T02:04:40.240Z,97
2019-02-08T02:05:40.820Z,97
2019-02-08T02:06:40.683Z,97
2019-02-08T02:07:39.808Z,97
2019-02-08T02:08:39.595Z,97
2019-02-08T02:09:39.582Z,97
2019-02-08T02:10:39.855Z,97
2019-02-08T02:11:40.013Z,97
2019-02-08T02:12:39.590Z,97
2019-02-08T02:13:39.747Z,97
2019-02-08T02:14:39.791Z,97
2019-02-08T02:15:39.970Z,97
2019-02-08T02:16:39.614Z,97
2019-02-08T02:17:40.724Z,97
2019-02-08T02:18:40.034Z,97
2019-02-08T02:19:39.789Z,97
2019-02-08T02:20:40.713Z,97
2019-02-08T02:21:39.819Z,97
2019-02-08T02:22:39.643Z,97
2019-02-08T02:23:39.534Z,97
2019-02-08T02:24:40.099Z,97
2019-02-08T02:25:39.788Z,97
2019-02-08T02:26:40.046Z,97
2019-02-08T02:29:53.066Z,97
2019-02-08T02:30:02.018Z,97
2019-02-08T02:31:01.927Z,97
2019-02-08T02:32:02.263Z,97
2019-02-08T02:33:02.312Z,97
2019-02-08T02:34:02.300Z,97
2019-02-08T02:35:02.863Z,97
2019-02-08T02:36:01.843Z,97
2019-02-08T02:37:03.815Z,97
2019-02-08T02:38:02.520Z,97
2019-02-08T02:39:01.862Z,97
2019-02-08T02:40:04.141Z,97
2019-02-08T02:41:02.355Z,97
2019-02-08T02:42:02.048Z,97
2019-02-08T02:43:02.686Z,97
2019-02-08T02:44:03.290Z,97
2019-02-08T02:45:02.864Z,97
2019-02-08T02:46:01.788Z,97
2019-02-08T02:47:01.795Z,97
2019-02-08T02:48:54.625Z,97
2019-02-08T02:49:02.913Z,97
2019-02-08T02:50:02.264Z,97
2019-02-08T02:51:02.442Z,97
2019-02-08T02:52:03.089Z,97
2019-02-08T02:53:03.210Z,97
2019-02-08T02:54:04.636Z,97
2019-02-08T02:55:03.138Z,97
2019-02-08T02:56:02.459Z,97
2019-02-08T02:57:02.725Z,97
2019-02-08T02:58:02.522Z,97
2019-02-08T03:00:15.679Z,97
2019-02-08T03:01:15.400Z,97
2019-02-08T03:02:16.960Z,97
2019-02-08T03:03:16.093Z,97
2019-02-08T03:04:15.389Z,97
2019-02-08T03:05:15.722Z,97
2019-02-08T03:06:15.473Z,97
2019-02-08T03:07:16.403Z,97
2019-02-08T03:08:15.546Z,97
2019-02-08T03:09:15.308Z,97
2019-02-08T03:10:15.487Z,97
2019-02-08T03:11:15.268Z,97
2019-02-08T03:12:15.675Z,97
2019-02-08T03:13:16.131Z,97
2019-02-08T03:14:15.423Z,97
2019-02-08T03:15:15.438Z,97
2019-02-08T03:16:15.681Z,97
2019-02-08T03:17:15.484Z,97
2019-02-08T03:18:16.225Z,97
2019-02-08T03:19:15.395Z,96
2019-02-08T03:20:15.502Z,96
2019-02-08T03:21:15.484Z,96
2019-02-08T03:22:15.489Z,96
2019-02-08T03:23:15.376Z,96
2019-02-08T03:24:15.738Z,96
2019-02-08T03:25:15.770Z,96
2019-02-08T03:26:15.735Z,96
2019-02-08T03:27:16.337Z,96
2019-02-08T03:28:15.296Z,96
2019-02-08T03:29:15.359Z,96
2019-02-08T03:30:15.515Z,96
2019-02-08T03:31:15.775Z,96
2019-02-08T03:32:15.573Z,96
2019-02-08T03:33:15.782Z,96
2019-02-08T03:34:15.371Z,96
2019-02-08T03:35:15.482Z,96
2019-02-08T03:36:15.503Z,96
2019-02-08T03:37:17.090Z,96
2019-02-08T03:38:16.000Z,96
2019-02-08T03:39:15.513Z,96
2019-02-08T03:40:15.907Z,96
2019-02-08T03:41:17.107Z,96
2019-02-08T03:42:15.515Z,96
2019-02-08T03:43:16.220Z,96
2019-02-08T03:44:15.529Z,96
2019-02-08T03:45:15.661Z,96
2019-02-08T03:46:16.274Z,96
2019-02-08T03:47:15.568Z,96
2019-02-08T03:48:15.815Z,96
2019-02-08T03:49:15.572Z,96
2019-02-08T03:50:15.773Z,96
2019-02-08T03:51:16.066Z,96
2019-02-08T03:52:16.246Z,96
2019-02-08T03:53:17.320Z,96
2019-02-08T03:54:20.868Z,96
2019-02-08T03:55:15.696Z,96
2019-02-08T03:56:15.770Z,96
2019-02-08T03:57:16.340Z,96
2019-02-08T03:58:15.362Z,96
2019-02-08T03:59:18.484Z,96
2019-02-08T04:00:16.198Z,96
2019-02-08T04:01:15.521Z,96
2019-02-08T04:02:18.079Z,96
2019-02-08T04:03:44.280Z,96
2019-02-08T04:04:15.630Z,96
2019-02-08T04:05:16.487Z,96
2019-02-08T04:06:15.529Z,96
2019-02-08T04:07:15.575Z,96
2019-02-08T04:08:16.899Z,96
2019-02-08T04:09:17.530Z,96
2019-02-08T04:10:16.496Z,96
2019-02-08T04:11:16.159Z,96
2019-02-08T04:12:17.023Z,96
2019-02-08T04:13:15.431Z,96
2019-02-08T04:15:28.086Z,96
2019-02-08T04:16:28.196Z,96
2019-02-08T04:17:28.202Z,96
2019-02-08T04:18:28.849Z,96
2019-02-08T04:19:28.885Z,96
2019-02-08T04:20:28.493Z,96
2019-02-08T04:21:28.825Z,96
2019-02-08T04:22:28.065Z,96
2019-02-08T04:23:28.074Z,96
2019-02-08T04:24:29.753Z,96
2019-02-08T04:25:31.213Z,96
2019-02-08T04:26:28.074Z,96
2019-02-08T04:27:28.312Z,96
2019-02-08T04:28:30.027Z,96
2019-02-08T04:29:28.863Z,96
2019-02-08T04:30:28.879Z,96
2019-02-08T04:31:27.999Z,96
2019-02-08T04:32:28.115Z,96
2019-02-08T04:33:28.248Z,96
2019-02-08T04:34:31.058Z,96
2019-02-08T04:35:30.243Z,96
2019-02-08T04:36:28.426Z,96
2019-02-08T04:37:28.050Z,96
2019-02-08T04:38:28.120Z,96
2019-02-08T04:39:29.070Z,96
2019-02-08T04:40:28.245Z,96
2019-02-08T04:41:28.469Z,96
2019-02-08T04:42:28.517Z,96
2019-02-08T04:43:28.254Z,96
2019-02-08T04:44:28.713Z,96
2019-02-08T04:45:28.791Z,96
2019-02-08T04:46:28.254Z,96
2019-02-08T04:47:28.276Z,96
2019-02-08T04:48:28.316Z,96
2019-02-08T04:49:28.307Z,96
2019-02-08T04:50:29.848Z,96
2019-02-08T04:51:28.534Z,96
2019-02-08T04:52:28.498Z,96
2019-02-08T04:53:28.845Z,96
2019-02-08T04:54:28.307Z,96
2019-02-08T04:55:28.859Z,96
2019-02-08T04:56:29.390Z,96
2019-02-08T04:57:28.314Z,96
2019-02-08T04:58:35.175Z,96
2019-02-08T04:59:29.197Z,96
2019-02-08T05:00:28.715Z,96
2019-02-08T05:01:28.103Z,96
2019-02-08T05:02:28.310Z,96
2019-02-08T05:03:28.163Z,96
2019-02-08T05:04:28.536Z,96
2019-02-08T05:05:28.356Z,95
2019-02-08T05:06:28.402Z,95
2019-02-08T05:07:28.993Z,95
2019-02-08T05:08:28.406Z,95
2019-02-08T05:09:28.262Z,95
2019-02-08T05:10:28.465Z,95
2019-02-08T05:11:28.459Z,95
2019-02-08T05:12:29.163Z,95
2019-02-08T05:13:29.241Z,95
2019-02-08T05:14:28.193Z,95
2019-02-08T05:15:28.934Z,95
2019-02-08T05:16:29.165Z,95
2019-02-08T05:17:29.438Z,95
2019-02-08T05:18:28.429Z,95
2019-02-08T05:19:28.459Z,95
2019-02-08T05:20:28.924Z,95
2019-02-08T05:21:28.381Z,95
2019-02-08T05:22:28.692Z,95
2019-02-08T05:23:28.437Z,95
2019-02-08T05:24:28.378Z,95
2019-02-08T05:25:28.736Z,95
2019-02-08T05:26:28.525Z,95
2019-02-08T05:27:28.726Z,95
2019-02-08T05:28:28.442Z,95
2019-02-08T05:29:28.262Z,95
2019-02-08T05:30:44.606Z,95
2019-02-08T05:31:30.443Z,94
2019-02-08T05:32:29.247Z,94
2019-02-08T05:33:28.423Z,94
2019-02-08T05:34:28.905Z,94
2019-02-08T05:35:28.181Z,94
2019-02-08T05:36:29.976Z,94
2019-02-08T05:37:28.459Z,94
2019-02-08T05:38:28.230Z,94
2019-02-08T05:39:28.498Z,94
2019-02-08T05:40:57.051Z,94
2019-02-08T05:41:28.444Z,94
2019-02-08T05:42:28.435Z,94
2019-02-08T05:43:28.334Z,94
2019-02-08T05:44:28.712Z,94
2019-02-08T05:45:28.619Z,94
2019-02-08T05:46:31.037Z,94
2019-02-08T05:47:28.734Z,94
2019-02-08T05:48:28.721Z,94
2019-02-08T05:49:29.225Z,94
2019-02-08T05:50:28.588Z,94
2019-02-08T05:51:29.292Z,94
2019-02-08T05:52:28.623Z,94
2019-02-08T05:53:28.585Z,94
2019-02-08T05:54:28.692Z,94
2019-02-08T05:55:28.540Z,94
2019-02-08T05:56:28.495Z,94
2019-02-08T05:57:29.045Z,94
2019-02-08T05:58:28.768Z,94
2019-02-08T05:59:28.725Z,94
2019-02-08T06:05:24.356Z,94
2019-02-08T06:05:36.611Z,94
2019-02-08T06:06:36.465Z,94
2019-02-08T06:07:36.370Z,94
2019-02-08T06:08:36.522Z,94
2019-02-08T06:09:36.718Z,94
2019-02-08T06:10:36.278Z,94
2019-02-08T06:11:36.354Z,94
2019-02-08T06:12:36.221Z,94
2019-02-08T06:13:37.307Z,94
2019-02-08T06:14:36.512Z,94
2019-02-08T06:15:36.720Z,94
2019-02-08T06:16:37.069Z,94
2019-02-08T06:17:36.423Z,94
2019-02-08T06:18:36.660Z,94
2019-02-08T06:19:36.458Z,93
2019-02-08T06:20:36.299Z,93
2019-02-08T06:21:36.528Z,93
2019-02-08T06:22:37.021Z,93
2019-02-08T06:23:36.269Z,93
2019-02-08T06:24:37.958Z,93
2019-02-08T06:25:36.517Z,93
2019-02-08T06:26:36.692Z,93
2019-02-08T06:27:36.284Z,93
2019-02-08T06:28:36.697Z,93
2019-02-08T06:29:37.138Z,93
2019-02-08T06:30:36.557Z,93
2019-02-08T06:31:36.707Z,93
2019-02-08T06:32:36.533Z,93
2019-02-08T06:33:36.734Z,93
2019-02-08T06:34:36.484Z,94
2019-02-08T06:35:36.278Z,94
2019-02-08T06:36:36.497Z,94
2019-02-08T06:37:43.849Z,94
2019-02-08T06:38:36.549Z,94
2019-02-08T06:39:36.280Z,94
2019-02-08T06:40:36.449Z,94
2019-02-08T06:41:36.840Z,94
2019-02-08T06:42:39.458Z,94
2019-02-08T06:43:37.564Z,94
2019-02-08T06:44:36.488Z,94
2019-02-08T06:45:36.495Z,94
2019-02-08T06:46:36.463Z,94
2019-02-08T06:47:36.458Z,94
2019-02-08T06:48:36.445Z,94
2019-02-08T06:49:36.728Z,94
2019-02-08T06:50:37.504Z,94
2019-02-08T06:51:36.283Z,94
2019-02-08T06:52:36.493Z,94
2019-02-08T06:53:36.440Z,94
2019-02-08T06:54:36.483Z,94
2019-02-08T06:55:37.239Z,94
2019-02-08T06:56:36.286Z,94
2019-02-08T06:57:37.482Z,94
2019-02-08T06:58:36.718Z,94
2019-02-08T06:59:36.299Z,94
2019-02-08T07:00:36.533Z,94
2019-02-08T07:01:37.129Z,94
2019-02-08T07:02:37.107Z,93
2019-02-08T07:03:36.537Z,93
2019-02-08T07:04:37.415Z,93
2019-02-08T07:05:36.495Z,93
2019-02-08T07:06:36.612Z,93
2019-02-08T07:07:36.718Z,93
2019-02-08T07:08:36.280Z,93
2019-02-08T07:09:37.346Z,93
2019-02-08T07:10:37.151Z,93
2019-02-08T07:11:36.494Z,93
2019-02-08T07:12:36.360Z,93
2019-02-08T07:13:36.358Z,93
2019-02-08T07:14:37.660Z,93
2019-02-08T07:15:36.794Z,93
2019-02-08T07:16:37.474Z,93
2019-02-08T07:17:36.567Z,93
2019-02-08T07:18:36.708Z,93
2019-02-08T07:19:36.776Z,93
2019-02-08T07:20:36.489Z,93
2019-02-08T07:21:36.541Z,93
2019-02-08T07:22:36.488Z,93
2019-02-08T07:23:36.518Z,93
2019-02-08T07:24:36.948Z,93
2019-02-08T07:25:36.520Z,93
2019-02-08T07:26:36.782Z,93
2019-02-08T07:27:36.837Z,93
2019-02-08T07:28:36.338Z,93
2019-02-08T07:29:36.543Z,93
2019-02-08T07:30:36.563Z,93
2019-02-08T07:31:36.828Z,93
2019-02-08T07:32:37.186Z,93
2019-02-08T07:33:36.560Z,93
2019-02-08T07:34:37.143Z,93
2019-02-08T07:35:36.790Z,93
2019-02-08T07:36:36.639Z,93
2019-02-08T07:37:37.094Z,93
2019-02-08T07:38:36.540Z,93
2019-02-08T07:39:36.814Z,93
2019-02-08T07:40:36.800Z,93
2019-02-08T07:41:36.567Z,93
2019-02-08T07:42:37.506Z,93
2019-02-08T07:43:36.537Z,93
2019-02-08T07:52:47.759Z,93
2019-02-08T07:52:56.617Z,93
2019-02-08T07:53:56.962Z,92
2019-02-08T07:54:56.635Z,92
2019-02-08T07:55:56.583Z,92
2019-02-08T07:56:56.886Z,92
2019-02-08T07:57:56.642Z,92
2019-02-08T07:58:57.254Z,92
2019-02-08T07:59:56.836Z,92
2019-02-08T08:00:56.453Z,92
2019-02-08T08:01:57.829Z,92
2019-02-08T08:02:56.873Z,92
2019-02-08T08:04:01.237Z,91
2019-02-08T08:04:57.403Z,91
2019-02-08T08:05:56.610Z,91
2019-02-08T08:06:56.879Z,91
2019-02-08T08:07:56.642Z,91
2019-02-08T08:08:56.424Z,91
2019-02-08T08:09:56.497Z,91
2019-02-08T08:10:56.630Z,91
2019-02-08T08:11:58.594Z,91
2019-02-08T08:12:56.979Z,91
2019-02-08T08:13:57.896Z,91
2019-02-08T08:14:56.650Z,91
2019-02-08T08:15:56.698Z,91
2019-02-08T08:16:57.236Z,91
2019-02-08T08:17:56.652Z,91
2019-02-08T08:18:56.668Z,91
2019-02-08T08:19:57.371Z,91
2019-02-08T08:20:56.476Z,90
2019-02-08T08:21:56.922Z,90
2019-02-08T08:22:57.342Z,90
2019-02-08T08:23:56.663Z,90
2019-02-08T08:24:57.120Z,90
2019-02-08T08:25:56.740Z,90
2019-02-08T08:26:56.710Z,90
2019-02-08T08:27:56.688Z,90
2019-02-08T08:28:56.692Z,90
2019-02-08T08:29:56.871Z,90
2019-02-08T08:30:57.588Z,90
2019-02-08T08:31:56.932Z,90
2019-02-08T08:32:56.442Z,90
2019-02-08T08:33:56.700Z,89
2019-02-08T08:34:56.914Z,89
2019-02-08T08:35:56.973Z,89
2019-02-08T08:36:57.340Z,88
2019-02-08T08:37:56.720Z,88
2019-02-08T08:38:56.863Z,88
2019-02-08T08:39:56.676Z,88
2019-02-08T08:41:06.586Z,88
2019-02-08T08:41:57.102Z,87
2019-02-08T08:42:56.697Z,87
2019-02-08T08:43:56.729Z,86
2019-02-08T08:44:58.486Z,86
2019-02-08T08:45:56.707Z,86
2019-02-08T08:46:57.244Z,86
2019-02-08T08:47:56.455Z,86
2019-02-08T08:48:56.642Z,86
2019-02-08T08:49:56.696Z,86
2019-02-08T08:50:57.593Z,86
2019-02-08T08:51:57.263Z,84
2019-02-08T08:52:56.539Z,84
2019-02-08T08:53:56.732Z,84
2019-02-08T08:54:56.491Z,83
2019-02-08T08:55:56.717Z,83
2019-02-08T08:56:56.953Z,83
2019-02-08T08:57:56.725Z,83
2019-02-08T08:58:56.728Z,83
2019-02-08T08:59:56.507Z,81
2019-02-08T09:00:56.993Z,81
2019-02-08T09:01:56.705Z,81
2019-02-08T09:02:56.975Z,81
2019-02-08T09:03:57.358Z,81
2019-02-08T09:04:57.344Z,81
2019-02-08T09:05:56.583Z,81
2019-02-08T09:06:56.772Z,80
2019-02-08T09:07:56.938Z,80
2019-02-08T09:08:57.364Z,80
2019-02-08T09:09:58.332Z,80
2019-02-08T09:10:57.379Z,80
2019-02-08T09:11:56.524Z,80
2019-02-08T09:12:57.528Z,80
2019-02-08T09:13:56.542Z,80
2019-02-08T09:14:57.007Z,79
2019-02-08T09:15:56.751Z,79
2019-02-08T09:16:57.566Z,79
2019-02-08T09:17:57.298Z,79
2019-02-08T09:18:56.763Z,79
2019-02-08T09:19:56.751Z,79
2019-02-08T09:20:56.592Z,79
2019-02-08T09:21:56.722Z,79
2019-02-08T09:22:56.809Z,80
2019-02-08T09:23:57.001Z,80
2019-02-08T09:24:57.008Z,79
2019-02-08T09:25:56.873Z,79
2019-02-08T09:26:57.245Z,79
2019-02-08T09:27:56.728Z,79
2019-02-08T09:28:56.643Z,79
2019-02-08T09:29:58.273Z,80
2019-02-08T09:30:56.768Z,80
2019-02-08T09:31:56.591Z,80
2019-02-08T09:32:56.827Z,80
2019-02-08T09:33:57.524Z,80
2019-02-08T09:34:58.843Z,80
2019-02-08T09:35:56.767Z,80
2019-02-08T09:36:57.068Z,80
2019-02-08T09:37:56.731Z,81
2019-02-08T09:38:56.555Z,81
2019-02-08T09:39:56.589Z,81
2019-02-08T09:40:57.473Z,81
2019-02-08T09:41:56.612Z,81
2019-02-08T09:42:56.858Z,81
2019-02-08T09:43:57.175Z,81
2019-02-08T09:44:59.040Z,80
2019-02-08T09:45:56.570Z,80
2019-02-08T09:46:58.122Z,80
2019-02-08T09:47:57.017Z,80
2019-02-08T09:48:56.582Z,80
2019-02-08T09:49:57.042Z,80
2019-02-08T09:50:57.020Z,80
2019-02-08T09:51:57.004Z,80
2019-02-08T09:52:56.608Z,79
2019-02-08T09:53:56.983Z,79
2019-02-08T09:54:56.823Z,79
2019-02-08T09:55:57.694Z,79
2019-02-08T09:56:57.185Z,79
2019-02-08T09:57:58.086Z,79
2019-02-08T09:58:57.297Z,79
2019-02-08T09:59:57.623Z,79
2019-02-08T10:00:56.634Z,80
2019-02-08T10:01:56.651Z,80
2019-02-08T10:03:06.972Z,80
2019-02-08T10:03:57.074Z,80
2019-02-08T10:04:57.139Z,80
2019-02-08T10:05:57.463Z,80
2019-02-08T10:06:56.840Z,80
2019-02-08T10:07:57.052Z,80
2019-02-08T10:08:58.042Z,80
2019-02-08T10:09:58.144Z,80
2019-02-08T10:10:57.725Z,80
2019-02-08T10:11:57.976Z,80
2019-02-08T10:12:56.848Z,80
2019-02-08T10:13:56.662Z,80
2019-02-08T10:14:57.712Z,80
2019-02-08T10:15:57.280Z,79
2019-02-08T10:16:56.899Z,79
2019-02-08T10:17:57.078Z,79
2019-02-08T10:18:56.884Z,79
2019-02-08T10:19:57.098Z,79
2019-02-08T10:20:56.701Z,78
2019-02-08T10:21:56.828Z,78
2019-02-08T10:22:57.498Z,78
2019-02-08T10:23:56.642Z,77
2019-02-08T10:24:57.180Z,77
2019-02-08T10:25:57.290Z,77
2019-02-08T10:26:57.145Z,77
2019-02-08T10:27:56.841Z,77
2019-02-08T10:28:56.862Z,77
2019-02-08T10:29:57.155Z,77
2019-02-08T10:30:56.697Z,77
2019-02-08T10:31:56.897Z,77
2019-02-08T10:32:56.688Z,77
2019-02-08T10:33:56.737Z,77
2019-02-08T10:34:56.904Z,77
2019-02-08T10:35:56.900Z,77
2019-02-08T10:36:57.749Z,77
2019-02-08T10:37:58.841Z,77
2019-02-08T10:38:56.861Z,77
2019-02-08T10:39:57.756Z,77
2019-02-08T10:40:56.715Z,77
2019-02-08T10:41:56.908Z,77
2019-02-08T10:42:57.135Z,77
2019-02-08T10:43:56.891Z,77
2019-02-08T10:44:56.737Z,77
2019-02-08T10:45:57.449Z,77
2019-02-08T10:46:56.940Z,77
2019-02-08T10:48:07.784Z,77
2019-02-08T10:48:56.757Z,77
2019-02-08T10:49:56.875Z,77
2019-02-08T10:50:57.697Z,76
2019-02-08T10:51:56.654Z,76
2019-02-08T10:52:57.719Z,76
2019-02-08T10:53:56.901Z,76
2019-02-08T10:54:57.655Z,76
2019-02-08T10:55:57.158Z,76
2019-02-08T10:56:56.913Z,76
2019-02-08T10:57:57.575Z,76
2019-02-08T10:58:57.931Z,76
2019-02-08T10:59:56.904Z,76
2019-02-08T11:00:57.189Z,76
2019-02-08T11:01:57.427Z,75
2019-02-08T11:02:57.438Z,75
2019-02-08T11:03:56.741Z,75
2019-02-08T11:04:56.999Z,75
2019-02-08T11:05:57.189Z,75
2019-02-08T11:06:56.935Z,75
2019-02-08T11:09:21.830Z,75
2019-02-08T11:09:35.327Z,75
2019-02-08T11:10:35.531Z,76
2019-02-08T11:11:34.811Z,76
2019-02-08T11:12:34.504Z,76
2019-02-08T11:13:34.532Z,76
2019-02-08T11:14:35.627Z,76
2019-02-08T11:15:34.508Z,76
2019-02-08T11:16:34.814Z,75
2019-02-08T11:17:35.965Z,75
2019-02-08T11:18:34.790Z,75
2019-02-08T11:19:34.462Z,75
2019-02-08T11:20:34.533Z,75
2019-02-08T11:21:35.013Z,75
2019-02-08T11:22:34.791Z,75
2019-02-08T11:23:34.826Z,75
2019-02-08T11:24:34.573Z,74
2019-02-08T11:25:34.346Z,74
2019-02-08T11:28:15.987Z,74
2019-02-08T11:28:25.025Z,74
2019-02-08T11:29:24.654Z,74
2019-02-08T11:30:25.810Z,74
2019-02-08T11:31:24.787Z,74
2019-02-08T11:32:26.619Z,73
2019-02-08T11:33:25.474Z,73
2019-02-08T11:34:24.708Z,73
2019-02-08T11:35:25.355Z,73
2019-02-08T11:36:26.303Z,73
2019-02-08T11:37:44.819Z,73
2019-02-08T11:38:24.854Z,73
2019-02-08T11:39:25.180Z,72
2019-02-08T11:40:25.637Z,72
2019-02-08T11:41:25.441Z,72
2019-02-08T11:42:24.656Z,73
2019-02-08T11:43:25.616Z,73
2019-02-08T11:44:25.392Z,72
2019-02-08T11:45:24.720Z,72
2019-02-08T11:46:25.489Z,72
2019-02-08T11:47:24.664Z,72
2019-02-08T11:48:24.626Z,72
2019-02-08T11:49:24.896Z,72
2019-02-08T11:50:24.861Z,72
2019-02-08T11:51:25.405Z,72
2019-02-08T11:52:26.256Z,72
2019-02-08T11:53:25.387Z,72
2019-02-08T11:54:24.722Z,72
2019-02-08T11:55:25.773Z,71
2019-02-08T11:56:29.744Z,71
2019-02-08T11:57:24.716Z,71
2019-02-08T11:58:24.909Z,71
2019-02-08T11:59:25.276Z,71
2019-02-08T12:00:24.672Z,71
2019-02-08T12:01:26.785Z,71
2019-02-08T12:02:25.983Z,73
2019-02-08T12:03:24.875Z,73
2019-02-08T12:04:24.749Z,73
2019-02-08T12:05:25.319Z,71
2019-02-08T12:06:24.878Z,71
2019-02-08T12:07:25.503Z,71
2019-02-08T12:08:25.667Z,71
2019-02-08T12:09:24.865Z,71
2019-02-08T12:10:25.116Z,71
2019-02-08T12:11:25.270Z,71
2019-02-08T12:12:24.900Z,70
2019-02-08T12:13:25.140Z,70
2019-02-08T12:14:24.893Z,70
2019-02-08T12:15:24.852Z,70
2019-02-08T12:16:24.860Z,70
2019-02-08T12:17:24.838Z,71
2019-02-08T12:18:25.648Z,71
2019-02-08T12:19:25.041Z,71
2019-02-08T12:20:25.371Z,71
2019-02-08T12:21:24.899Z,71
2019-02-08T12:22:24.925Z,72
2019-02-08T12:23:24.911Z,72
2019-02-08T12:24:25.122Z,72
2019-02-08T12:25:25.597Z,71
2019-02-08T12:26:24.935Z,71
2019-02-08T12:27:26.271Z,71
2019-02-08T12:28:24.717Z,71
2019-02-08T12:29:26.398Z,71
2019-02-08T12:30:24.897Z,70
2019-02-08T12:31:24.999Z,70
2019-02-08T12:32:25.399Z,70
2019-02-08T12:33:24.990Z,71
2019-02-08T12:34:25.001Z,71
2019-02-08T12:35:25.185Z,70
2019-02-08T12:36:24.924Z,70
2019-02-08T12:37:25.849Z,70
2019-02-08T12:38:25.177Z,70
2019-02-08T12:39:25.605Z,70
2019-02-08T12:40:24.684Z,69
2019-02-08T12:41:24.965Z,69
2019-02-08T12:42:24.965Z,69
2019-02-08T12:43:25.566Z,69
2019-02-08T12:44:25.160Z,69
2019-02-08T12:45:25.512Z,69
2019-02-08T12:46:24.937Z,69
2019-02-08T12:47:25.881Z,69
2019-02-08T12:48:24.732Z,69
2019-02-08T12:49:24.833Z,69
2019-02-08T12:50:25.803Z,69
2019-02-08T12:51:25.311Z,69
2019-02-08T12:52:25.603Z,69
2019-02-08T12:53:25.751Z,70
2019-02-08T12:54:26.322Z,70
2019-02-08T12:55:25.522Z,70
2019-02-08T12:56:25.167Z,70
2019-02-08T12:57:24.979Z,70
2019-02-08T12:58:26.632Z,70
2019-02-08T12:59:26.034Z,70
2019-02-08T13:00:25.032Z,70
2019-02-08T13:01:26.002Z,69
2019-02-08T13:02:25.973Z,69
2019-02-08T13:03:25.015Z,69
2019-02-08T13:04:25.006Z,69
2019-02-08T13:05:25.047Z,69
2019-02-08T13:06:25.002Z,68
2019-02-08T13:07:26.916Z,68
2019-02-08T13:08:25.652Z,67
2019-02-08T13:09:25.374Z,67
2019-02-08T13:10:25.219Z,67
2019-02-08T13:11:25.008Z,67
2019-02-08T13:12:24.995Z,67
2019-02-08T13:13:24.750Z,66
2019-02-08T13:14:25.001Z,66
2019-02-08T13:15:25.002Z,66
2019-02-08T13:16:25.005Z,67
2019-02-08T13:17:25.073Z,67
2019-02-08T13:18:25.732Z,66
2019-02-08T13:19:26.427Z,66
2019-02-08T13:20:25.252Z,66
2019-02-08T13:21:25.070Z,67
2019-02-08T13:22:25.532Z,67
2019-02-08T13:23:26.116Z,67
2019-02-08T13:24:25.862Z,68
2019-02-08T13:25:25.893Z,68
2019-02-08T13:26:25.252Z,67
2019-02-08T13:27:25.021Z,67
2019-02-08T13:28:24.998Z,67
2019-02-08T13:29:25.257Z,67
2019-02-08T13:30:25.871Z,67
2019-02-08T13:31:25.097Z,67
2019-02-08T13:32:25.240Z,67
2019-02-08T13:33:25.511Z,67
2019-02-08T13:34:25.075Z,66
2019-02-08T13:35:24.957Z,66
2019-02-08T13:36:25.019Z,66
2019-02-08T13:37:25.210Z,66
2019-02-08T13:38:25.268Z,66
2019-02-08T13:39:26.877Z,66
2019-02-08T13:40:25.007Z,66
2019-02-08T13:41:25.396Z,66
2019-02-08T13:42:25.413Z,66
2019-02-08T13:43:24.879Z,66
2019-02-08T13:44:24.860Z,66
2019-02-08T13:45:26.286Z,66
2019-02-08T13:46:25.087Z,67
2019-02-08T13:47:25.573Z,67
2019-02-08T13:48:25.100Z,67
2019-02-08T13:49:25.783Z,67
2019-02-08T13:50:25.081Z,67
2019-02-08T13:51:25.086Z,66
2019-02-08T13:52:27.395Z,66
2019-02-08T13:53:25.295Z,66
2019-02-08T13:54:25.358Z,67
2019-02-08T13:55:25.080Z,67
2019-02-08T13:56:25.933Z,67
2019-02-08T13:57:25.071Z,67
2019-02-08T13:58:25.549Z,67
2019-02-08T13:59:24.880Z,67
2019-02-08T14:00:25.304Z,67
2019-02-08T14:01:27.327Z,67
2019-02-08T14:02:25.180Z,67
2019-02-08T14:03:26.338Z,67
2019-02-08T14:04:25.726Z,68
2019-02-08T14:05:25.190Z,68
2019-02-08T14:06:25.107Z,68
2019-02-08T14:07:25.713Z,68
2019-02-08T14:08:25.097Z,68
2019-02-08T14:09:26.378Z,68
2019-02-08T14:10:25.468Z,68
2019-02-08T14:11:25.700Z,68
2019-02-08T14:12:25.148Z,68
2019-02-08T14:13:25.180Z,68
2019-02-08T14:14:25.202Z,70
2019-02-08T14:15:25.435Z,70
2019-02-08T14:16:25.454Z,70
2019-02-08T14:17:25.325Z,69
2019-02-08T14:18:25.343Z,69
2019-02-08T14:19:25.071Z,70
2019-02-08T14:20:25.376Z,70
2019-02-08T14:21:25.272Z,70
2019-02-08T14:22:25.145Z,70
2019-02-08T14:23:25.129Z,70
2019-02-08T14:24:25.146Z,70
2019-02-08T14:25:25.091Z,71
2019-02-08T14:26:27.161Z,71
2019-02-08T14:27:25.823Z,71
2019-02-08T14:28:25.240Z,71
2019-02-08T14:29:25.097Z,71
2019-02-08T14:30:25.050Z,70
2019-02-08T14:31:25.125Z,70
2019-02-08T14:32:25.053Z,70
2019-02-08T14:33:25.200Z,70
2019-02-08T14:34:25.333Z,70
2019-02-08T14:35:25.332Z,70
2019-02-08T14:36:24.977Z,70
2019-02-08T14:37:25.187Z,71
2019-02-08T14:38:25.684Z,71
2019-02-08T14:39:25.255Z,71
2019-02-08T14:40:25.646Z,71
2019-02-08T14:41:25.228Z,71
2019-02-08T14:42:25.231Z,71
2019-02-08T14:43:25.784Z,71
2019-02-08T14:44:26.190Z,71
2019-02-08T14:45:25.370Z,70